Time;durP1;ratioP1;P1;durP2;ratioP2;P2;SDS_P1;SDS_P2;PMS_P1;PMS_P2;Temp;Humidity;BMP_temperature;BMP_pressure;BME280_temperature;BME280_humidity;BME280_pressure;Samples;Min_cycle;Max_cycle;Signal;HPM_P1;HPM_P2
2021/08/18 00:17:48;;;;;;;24.00;13.32;;;;;;;;;;4568694;28;20109;-66
2021/08/18 00:20:14;;;;;;;33.38;14.82;;;;;;;;;;4204739;34;20109;-66
2021/08/18 00:22:40;;;;;;;30.42;14.75;;;;;;;;;;4211312;34;20105;-66
2021/08/18 00:25:06;;;;;;;31.52;14.23;;;;;;;;;;4218514;34;20220;-66
2021/08/18 00:27:32;;;;;;;33.42;14.68;;;;;;;;;;4218491;34;20202;-66
2021/08/18 00:29:57;;;;;;;32.58;15.25;;;;;;;;;;4218517;34;20121;-66
2021/08/18 00:32:24;;;;;;;27.40;14.80;;;;;;;;;;4218539;34;20106;-66
2021/08/18 00:34:49;;;;;;;28.42;15.70;;;;;;;;;;4218546;34;20143;-66
2021/08/18 00:37:15;;;;;;;34.75;15.38;;;;;;;;;;4218469;34;20450;-68
2021/08/18 00:39:41;;;;;;;41.10;16.60;;;;;;;;;;4218633;34;20245;-67
2021/08/18 00:42:07;;;;;;;38.25;17.83;;;;;;;;;;4218601;34;20105;-67
2021/08/18 00:44:36;;;;;;;36.63;16.75;;;;;;;;;;4218501;34;20520;-67
2021/08/18 00:47:04;;;;;;;37.90;17.10;;;;;;;;;;4218145;34;20120;-67
2021/08/18 00:49:30;;;;;;;31.98;15.73;;;;;;;;;;4218377;33;20122;-67
2021/08/18 00:51:57;;;;;;;42.25;16.62;;;;;;;;;;4218288;34;20113;-66
2021/08/18 00:54:23;;;;;;;35.47;15.82;;;;;;;;;;4218605;34;20118;-66
2021/08/18 00:56:49;;;;;;;45.65;19.02;;;;;;;;;;4218219;34;20148;-65
2021/08/18 00:59:15;;;;;;;32.88;16.25;;;;;;;;;;4205393;34;20129;-66
2021/08/18 01:01:41;;;;;;;43.47;17.60;;;;;;;;;;4218361;34;20281;-66
2021/08/18 01:04:07;;;;;;;34.78;16.02;;;;;;;;;;4218305;34;20109;-66
2021/08/18 01:06:34;;;;;;;35.13;15.98;;;;;;;;;;4218244;34;20117;-65
2021/08/18 01:09:00;;;;;;;37.60;17.42;;;;;;;;;;4220234;34;20541;-66
2021/08/18 01:11:26;;;;;;;42.75;17.30;;;;;;;;;;4220360;34;20109;-66
2021/08/18 01:13:52;;;;;;;35.70;16.45;;;;;;;;;;4207086;34;20416;-65
2021/08/18 01:16:18;;;;;;;38.88;17.70;;;;;;;;;;4220268;34;20130;-66
2021/08/18 01:18:44;;;;;;;45.70;19.00;;;;;;;;;;4225816;33;20117;-65
2021/08/18 01:21:11;;;;;;;48.13;20.40;;;;;;;;;;4234464;33;20123;-65
2021/08/18 01:23:37;;;;;;;48.22;20.05;;;;;;;;;;4234069;33;20124;-66
2021/08/18 01:26:02;;;;;;;48.25;19.85;;;;;;;;;;4234412;33;20511;-66
2021/08/18 01:28:28;;;;;;;39.97;17.52;;;;;;;;;;4234230;33;20196;-66
2021/08/18 01:30:54;;;;;;;33.55;17.70;;;;;;;;;;4234187;33;20211;-66
2021/08/18 01:33:20;;;;;;;37.95;17.90;;;;;;;;;;4233963;33;20533;-66
2021/08/18 01:35:47;;;;;;;33.40;14.93;;;;;;;;;;4234041;33;20132;-66
2021/08/18 01:38:16;;;;;;;51.15;17.37;;;;;;;;;;4233974;33;20121;-66
2021/08/18 01:40:43;;;;;;;36.17;15.20;;;;;;;;;;4234046;33;20125;-66
2021/08/18 01:43:10;;;;;;;30.23;16.42;;;;;;;;;;4233962;33;20533;-66
2021/08/18 01:45:37;;;;;;;40.55;16.05;;;;;;;;;;4234009;33;20566;-66
2021/08/18 01:48:11;;;;;;;37.20;17.98;;;;;;;;;;4233651;33;20128;-66
2021/08/18 01:50:37;;;;;;;33.97;15.70;;;;;;;;;;4233743;33;20117;-66
2021/08/18 01:53:03;;;;;;;39.58;16.83;;;;;;;;;;4226541;33;20111;-66
2021/08/18 01:55:29;;;;;;;37.05;19.12;;;;;;;;;;4219711;34;20148;-66
2021/08/18 01:57:56;;;;;;;43.38;18.80;;;;;;;;;;4219957;34;20557;-66
2021/08/18 02:00:22;;;;;;;43.83;19.30;;;;;;;;;;4206689;34;20103;-66
2021/08/18 02:02:48;;;;;;;38.45;19.35;;;;;;;;;;4219708;34;20161;-65
2021/08/18 02:05:14;;;;;;;47.10;20.20;;;;;;;;;;4219494;34;20125;-66
2021/08/18 02:07:40;;;;;;;37.28;17.67;;;;;;;;;;4219379;34;20136;-66
2021/08/18 02:10:08;;;;;;;44.85;19.77;;;;;;;;;;4206734;34;20541;-65
2021/08/18 02:12:35;;;;;;;43.60;20.12;;;;;;;;;;4219613;34;20117;-66
2021/08/18 02:15:12;;;;;;;43.53;18.15;;;;;;;;;;4219531;34;20113;-66
2021/08/18 02:17:38;;;;;;;42.17;17.30;;;;;;;;;;4218843;34;20109;-66
2021/08/18 02:20:05;;;;;;;42.40;19.98;;;;;;;;;;4232319;33;20124;-66
2021/08/18 02:22:31;;;;;;;40.47;18.55;;;;;;;;;;4233354;33;20529;-66
2021/08/18 02:24:57;;;;;;;39.45;19.02;;;;;;;;;;4233258;33;20217;-66
2021/08/18 02:27:23;;;;;;;44.60;19.90;;;;;;;;;;4233334;33;20208;-66
2021/08/18 02:29:49;;;;;;;48.95;18.50;;;;;;;;;;4233546;33;20131;-66
2021/08/18 02:32:14;;;;;;;38.30;17.60;;;;;;;;;;4233143;33;20116;-66
2021/08/18 02:34:40;;;;;;;33.70;18.23;;;;;;;;;;4233365;33;20121;-66
2021/08/18 02:37:06;;;;;;;43.63;19.27;;;;;;;;;;4233211;33;20109;-66
2021/08/18 02:39:32;;;;;;;37.58;19.45;;;;;;;;;;4233646;33;20227;-66
2021/08/18 02:41:58;;;;;;;42.65;21.10;;;;;;;;;;4233370;33;20446;-66
2021/08/18 02:44:24;;;;;;;39.42;18.60;;;;;;;;;;4233215;33;20195;-66
2021/08/18 02:46:50;;;;;;;38.90;19.73;;;;;;;;;;4220062;33;20216;-66
2021/08/18 02:49:18;;;;;;;43.15;20.17;;;;;;;;;;4233367;33;20148;-66
2021/08/18 02:51:49;;;;;;;38.53;17.23;;;;;;;;;;4233085;33;20509;-66
2021/08/18 02:54:15;;;;;;;46.20;19.00;;;;;;;;;;4233545;33;20135;-65
2021/08/18 02:56:44;;;;;;;41.33;18.45;;;;;;;;;;4233343;33;20477;-63
2021/08/18 02:59:11;;;;;;;41.80;19.00;;;;;;;;;;4233307;33;20204;-63
2021/08/18 03:01:38;;;;;;;38.58;17.85;;;;;;;;;;4233559;33;20461;-63
2021/08/18 03:04:04;;;;;;;40.63;19.02;;;;;;;;;;4233054;33;20457;-64
2021/08/18 03:06:29;;;;;;;39.13;17.70;;;;;;;;;;4232883;33;20137;-65
2021/08/18 03:08:55;;;;;;;50.53;16.85;;;;;;;;;;4232999;33;20124;-65
2021/08/18 03:11:21;;;;;;;42.85;18.35;;;;;;;;;;4233169;33;20213;-63
2021/08/18 03:13:47;;;;;;;37.80;16.60;;;;;;;;;;4232957;33;20131;-64
2021/08/18 03:16:13;;;;;;;43.17;19.33;;;;;;;;;;4232934;33;20216;-64
2021/08/18 03:18:39;;;;;;;49.67;19.58;;;;;;;;;;4232680;33;20098;-63
2021/08/18 03:21:05;;;;;;;41.97;18.90;;;;;;;;;;4232991;33;20128;-64
2021/08/18 03:23:31;;;;;;;45.35;18.52;;;;;;;;;;4219831;33;20611;-65
2021/08/18 03:25:56;;;;;;;46.90;18.60;;;;;;;;;;4232823;33;20289;-64
2021/08/18 03:28:22;;;;;;;57.50;20.62;;;;;;;;;;4232558;33;20116;-64
2021/08/18 03:30:48;;;;;;;50.17;18.50;;;;;;;;;;4219045;33;20521;-65
2021/08/18 03:33:14;;;;;;;47.03;18.33;;;;;;;;;;4232949;33;20125;-65
2021/08/18 03:35:40;;;;;;;43.75;18.95;;;;;;;;;;4232620;33;20143;-65
2021/08/18 03:38:06;;;;;;;42.42;18.50;;;;;;;;;;4232304;33;20272;-65
2021/08/18 03:40:32;;;;;;;54.92;21.55;;;;;;;;;;4231182;33;20152;-65
2021/08/18 03:42:58;;;;;;;57.55;21.65;;;;;;;;;;4231102;33;20121;-65
2021/08/18 03:45:24;;;;;;;49.83;20.27;;;;;;;;;;4230997;33;20125;-65
2021/08/18 03:47:50;;;;;;;55.17;20.25;;;;;;;;;;4230816;33;20219;-65
2021/08/18 03:50:15;;;;;;;46.45;21.62;;;;;;;;;;4231063;33;20231;-65
2021/08/18 03:52:41;;;;;;;48.90;22.67;;;;;;;;;;4231104;33;20739;-68
2021/08/18 03:55:09;;;;;;;50.75;22.00;;;;;;;;;;4232595;33;20520;-68
2021/08/18 03:57:35;;;;;;;54.42;21.10;;;;;;;;;;4232778;33;20109;-69
2021/08/18 04:00:01;;;;;;;50.50;21.33;;;;;;;;;;4232905;33;20143;-68
2021/08/18 04:02:27;;;;;;;46.65;20.40;;;;;;;;;;4232657;33;20208;-68
2021/08/18 04:04:53;;;;;;;53.85;23.05;;;;;;;;;;4219463;33;20560;-69
2021/08/18 04:07:18;;;;;;;53.17;20.42;;;;;;;;;;4232422;33;20120;-68
2021/08/18 04:09:44;;;;;;;46.75;20.90;;;;;;;;;;4232488;33;20132;-69
2021/08/18 04:12:10;;;;;;;52.78;21.87;;;;;;;;;;4232273;33;20461;-68
2021/08/18 04:14:36;;;;;;;46.33;19.00;;;;;;;;;;4232284;33;20184;-68
2021/08/18 04:17:02;;;;;;;49.08;21.05;;;;;;;;;;4232166;33;20450;-68
2021/08/18 04:19:28;;;;;;;52.30;21.35;;;;;;;;;;4232519;33;20143;-68
2021/08/18 04:21:54;;;;;;;40.70;18.77;;;;;;;;;;4232207;33;20134;-69
2021/08/18 04:24:20;;;;;;;44.97;19.20;;;;;;;;;;4232594;33;20120;-69
2021/08/18 04:26:46;;;;;;;43.35;19.62;;;;;;;;;;4232136;33;20142;-68
2021/08/18 04:29:12;;;;;;;47.92;20.05;;;;;;;;;;4232395;33;20109;-68
2021/08/18 04:31:38;;;;;;;36.97;18.05;;;;;;;;;;4232205;33;20159;-68
2021/08/18 04:34:04;;;;;;;59.53;23.38;;;;;;;;;;4219446;33;20113;-68
2021/08/18 04:36:29;;;;;;;57.67;23.33;;;;;;;;;;4232147;33;20616;-68
2021/08/18 04:38:55;;;;;;;59.15;23.15;;;;;;;;;;4232266;33;20121;-68
2021/08/18 04:41:21;;;;;;;58.80;24.08;;;;;;;;;;4219050;33;20125;-68
2021/08/18 04:43:47;;;;;;;49.85;19.55;;;;;;;;;;4232037;33;20127;-68
2021/08/18 04:46:13;;;;;;;45.72;21.45;;;;;;;;;;4232357;33;20135;-68
2021/08/18 04:48:39;;;;;;;46.50;19.25;;;;;;;;;;4232212;33;20120;-68
2021/08/18 04:51:04;;;;;;;42.20;18.55;;;;;;;;;;4232082;33;20218;-68
2021/08/18 04:53:30;;;;;;;40.50;18.17;;;;;;;;;;4232018;33;20512;-68
2021/08/18 04:55:56;;;;;;;37.25;17.45;;;;;;;;;;4232305;33;20139;-68
2021/08/18 04:58:22;;;;;;;43.80;18.92;;;;;;;;;;4231810;33;20560;-68
2021/08/18 05:00:48;;;;;;;39.47;17.70;;;;;;;;;;4231911;33;20694;-68
2021/08/18 05:03:14;;;;;;;40.28;15.80;;;;;;;;;;4218759;33;20117;-68
2021/08/18 05:05:40;;;;;;;38.28;18.08;;;;;;;;;;4231753;33;20127;-68
2021/08/18 05:08:07;;;;;;;37.20;17.08;;;;;;;;;;4231764;33;20109;-68
2021/08/18 05:10:34;;;;;;;40.33;15.95;;;;;;;;;;4231910;33;20101;-68
2021/08/18 05:13:00;;;;;;;42.25;17.17;;;;;;;;;;4231930;33;20100;-68
2021/08/18 05:15:27;;;;;;;36.20;16.42;;;;;;;;;;4231769;33;20129;-68
2021/08/18 05:17:53;;;;;;;30.75;14.25;;;;;;;;;;4231502;33;20112;-67
2021/08/18 05:20:19;;;;;;;36.70;16.67;;;;;;;;;;4218704;33;20517;-68
2021/08/18 05:22:45;;;;;;;36.47;16.23;;;;;;;;;;4218615;33;20547;-68
2021/08/18 05:25:11;;;;;;;39.13;16.50;;;;;;;;;;4231865;33;20101;-68
2021/08/18 05:27:38;;;;;;;33.50;16.10;;;;;;;;;;4231456;33;20104;-68
2021/08/18 05:30:05;;;;;;;44.13;16.60;;;;;;;;;;4218946;33;20197;-68
2021/08/18 05:32:31;;;;;;;38.53;16.62;;;;;;;;;;4231467;33;20511;-68
2021/08/18 05:34:57;;;;;;;40.92;16.00;;;;;;;;;;4231746;33;20124;-68
2021/08/18 05:37:23;;;;;;;37.42;15.88;;;;;;;;;;4231646;33;20102;-68
2021/08/18 05:39:49;;;;;;;32.67;16.02;;;;;;;;;;4231696;33;20153;-68
2021/08/18 05:42:15;;;;;;;40.88;17.55;;;;;;;;;;4231551;33;20102;-67
2021/08/18 05:44:41;;;;;;;39.72;16.35;;;;;;;;;;4231346;33;20128;-67
2021/08/18 05:47:07;;;;;;;48.75;18.00;;;;;;;;;;4231607;33;20207;-67
2021/08/18 05:49:33;;;;;;;41.30;17.62;;;;;;;;;;4231483;33;20280;-67
2021/08/18 05:51:58;;;;;;;42.92;15.48;;;;;;;;;;4231510;33;20105;-67
2021/08/18 05:54:24;;;;;;;41.65;16.08;;;;;;;;;;4233196;33;20128;-67
2021/08/18 05:56:52;;;;;;;36.28;15.43;;;;;;;;;;4233291;33;20517;-68
2021/08/18 05:59:18;;;;;;;31.83;13.88;;;;;;;;;;4233781;33;20228;-69
2021/08/18 06:01:44;;;;;;;34.85;15.80;;;;;;;;;;4233529;33;20105;-69
2021/08/18 06:04:13;;;;;;;34.05;15.07;;;;;;;;;;4233908;33;20461;-69
2021/08/18 06:06:39;;;;;;;31.17;11.85;;;;;;;;;;4220963;33;20094;-67
2021/08/18 06:09:05;;;;;;;31.50;13.60;;;;;;;;;;4233616;33;20224;-68
2021/08/18 06:11:31;;;;;;;30.25;12.75;;;;;;;;;;4233501;33;20117;-67
2021/08/18 06:13:56;;;;;;;25.05;11.05;;;;;;;;;;4233708;33;20124;-68
2021/08/18 06:16:25;;;;;;;32.85;12.43;;;;;;;;;;4233630;33;20147;-67
2021/08/18 06:18:51;;;;;;;26.42;11.80;;;;;;;;;;4220451;33;20140;-68
2021/08/18 06:21:17;;;;;;;31.98;12.43;;;;;;;;;;4233374;33;20121;-69
2021/08/18 06:23:44;;;;;;;29.30;12.93;;;;;;;;;;4233568;33;20124;-68
2021/08/18 06:26:11;;;;;;;20.62;11.23;;;;;;;;;;4233389;33;20216;-69
2021/08/18 06:28:36;;;;;;;22.25;12.40;;;;;;;;;;4233244;33;20125;-70
2021/08/18 06:31:02;;;;;;;23.52;11.57;;;;;;;;;;4233299;33;20128;-66
2021/08/18 06:33:28;;;;;;;28.05;12.30;;;;;;;;;;4232976;33;20128;-66
2021/08/18 06:35:54;;;;;;;23.73;12.30;;;;;;;;;;4233235;33;20136;-70
2021/08/18 06:38:20;;;;;;;29.63;12.13;;;;;;;;;;4233219;33;20125;-69
2021/08/18 06:40:46;;;;;;;21.05;12.00;;;;;;;;;;4233082;33;20200;-68
2021/08/18 06:43:12;;;;;;;26.87;13.23;;;;;;;;;;4233081;33;20429;-69
2021/08/18 06:45:38;;;;;;;18.92;8.25;;;;;;;;;;4232991;33;20180;-68
2021/08/18 06:48:04;;;;;;;10.95;4.28;;;;;;;;;;4233051;33;20187;-68
2021/08/18 06:50:31;;;;;;;21.67;9.98;;;;;;;;;;4233345;33;20133;-69
2021/08/18 06:52:57;;;;;;;21.85;11.27;;;;;;;;;;4233133;33;20218;-67
2021/08/18 06:55:23;;;;;;;22.40;10.52;;;;;;;;;;4233267;33;20217;-68
2021/08/18 06:57:49;;;;;;;31.10;10.23;;;;;;;;;;4232951;33;20121;-69
2021/08/18 07:00:15;;;;;;;26.70;12.05;;;;;;;;;;4232954;33;20509;-68
2021/08/18 07:02:50;;;;;;;26.15;10.95;;;;;;;;;;4232794;33;20115;-68
2021/08/18 07:05:16;;;;;;;25.42;8.60;;;;;;;;;;4232004;33;20101;-68
2021/08/18 07:07:43;;;;;;;24.58;11.88;;;;;;;;;;4220162;33;20119;-67
2021/08/18 07:10:09;;;;;;;19.98;10.35;;;;;;;;;;4232971;33;20121;-67
2021/08/18 07:12:35;;;;;;;25.00;11.20;;;;;;;;;;4232728;33;20199;-68
2021/08/18 07:15:01;;;;;;;21.08;11.15;;;;;;;;;;4232816;33;20613;-70
2021/08/18 07:17:27;;;;;;;21.52;9.15;;;;;;;;;;4219550;33;20106;-66
2021/08/18 07:19:53;;;;;;;27.70;11.75;;;;;;;;;;4232975;33;20116;-67
2021/08/18 07:22:19;;;;;;;27.33;9.00;;;;;;;;;;4232777;33;20131;-67
2021/08/18 07:24:45;;;;;;;17.30;7.15;;;;;;;;;;4232776;33;20117;-67
2021/08/18 07:27:11;;;;;;;15.18;6.82;;;;;;;;;;4232789;33;20257;-68
2021/08/18 07:29:37;;;;;;;23.95;10.75;;;;;;;;;;4232675;33;20309;-67
2021/08/18 07:32:03;;;;;;;35.47;12.23;;;;;;;;;;4232535;33;20199;-67
2021/08/18 07:34:29;;;;;;;20.98;11.20;;;;;;;;;;4219510;33;20109;-68
2021/08/18 07:36:55;;;;;;;21.00;10.52;;;;;;;;;;4232565;33;20188;-66
2021/08/18 07:39:21;;;;;;;23.55;10.93;;;;;;;;;;4232736;33;20144;-67
2021/08/18 07:41:46;;;;;;;23.08;9.23;;;;;;;;;;4232386;33;20160;-67
2021/08/18 07:44:12;;;;;;;16.92;8.35;;;;;;;;;;4232589;33;20224;-68
2021/08/18 07:46:38;;;;;;;20.88;8.50;;;;;;;;;;4232310;33;20227;-67
2021/08/18 07:49:04;;;;;;;18.67;8.00;;;;;;;;;;4232371;33;20528;-67
2021/08/18 07:51:30;;;;;;;21.25;7.05;;;;;;;;;;4232272;33;20339;-68
2021/08/18 07:53:56;;;;;;;20.27;11.02;;;;;;;;;;4232400;33;20160;-67
2021/08/18 07:56:22;;;;;;;18.65;9.15;;;;;;;;;;4232506;33;20472;-68
2021/08/18 07:58:48;;;;;;;16.58;8.13;;;;;;;;;;4219154;33;20168;-68
2021/08/18 08:01:14;;;;;;;21.25;9.90;;;;;;;;;;4232570;33;20150;-67
2021/08/18 08:03:39;;;;;;;18.62;10.95;;;;;;;;;;4232133;33;20549;-68
2021/08/18 08:06:05;;;;;;;19.70;10.05;;;;;;;;;;4232475;33;20141;-68
2021/08/18 08:08:31;;;;;;;21.15;10.73;;;;;;;;;;4232376;33;20136;-67
2021/08/18 08:10:57;;;;;;;20.37;11.00;;;;;;;;;;4232501;33;20146;-67
2021/08/18 08:13:23;;;;;;;20.73;10.68;;;;;;;;;;4232234;33;20140;-66
2021/08/18 08:15:49;;;;;;;23.42;11.12;;;;;;;;;;4232176;33;20136;-66
2021/08/18 08:18:15;;;;;;;19.95;10.60;;;;;;;;;;4232338;33;20367;-66
2021/08/18 08:20:41;;;;;;;16.98;10.32;;;;;;;;;;4232232;33;20204;-66
2021/08/18 08:23:07;;;;;;;21.58;10.68;;;;;;;;;;4232390;33;20104;-66
2021/08/18 08:25:33;;;;;;;21.65;10.88;;;;;;;;;;4232200;33;20124;-66
2021/08/18 08:27:59;;;;;;;25.12;10.25;;;;;;;;;;4232496;33;20188;-66
2021/08/18 08:30:25;;;;;;;19.40;9.27;;;;;;;;;;4232339;33;20144;-66
2021/08/18 08:32:51;;;;;;;18.58;9.10;;;;;;;;;;4232541;33;20132;-65
2021/08/18 08:35:17;;;;;;;21.50;10.30;;;;;;;;;;4232488;33;20553;-65
2021/08/18 08:37:43;;;;;;;23.40;11.73;;;;;;;;;;4232306;33;20117;-65
2021/08/18 08:40:09;;;;;;;20.55;10.30;;;;;;;;;;4232516;33;20226;-65
2021/08/18 08:42:37;;;;;;;12.23;5.65;;;;;;;;;;4232323;33;20129;-66
2021/08/18 08:45:04;;;;;;;22.20;8.73;;;;;;;;;;4232244;33;20101;-66
2021/08/18 08:47:29;;;;;;;21.15;10.23;;;;;;;;;;4231841;33;20143;-66
2021/08/18 08:49:56;;;;;;;17.95;9.23;;;;;;;;;;4232036;33;20121;-66
2021/08/18 08:52:22;;;;;;;20.25;9.07;;;;;;;;;;4232064;33;20112;-66
2021/08/18 08:54:48;;;;;;;21.77;9.90;;;;;;;;;;4231880;33;20635;-66
2021/08/18 08:57:14;;;;;;;17.83;7.68;;;;;;;;;;4231814;33;20129;-66
2021/08/18 08:59:40;;;;;;;21.02;10.43;;;;;;;;;;4231820;33;20540;-66
2021/08/18 09:02:10;;;;;;;22.05;10.25;;;;;;;;;;4231849;33;20101;-66
2021/08/18 09:04:44;;;;;;;19.98;10.05;;;;;;;;;;4231665;33;20101;-66
2021/08/18 09:07:11;;;;;;;21.55;9.05;;;;;;;;;;4231754;33;20203;-64
2021/08/18 09:09:38;;;;;;;26.50;8.98;;;;;;;;;;4231738;33;20103;-66
2021/08/18 09:12:11;;;;;;;21.40;11.25;;;;;;;;;;4231888;33;20135;-66
2021/08/18 09:14:37;;;;;;;20.27;10.63;;;;;;;;;;4231827;33;20223;-66
2021/08/18 09:17:26;;;;;;;19.95;9.23;;;;;;;;;;4231523;33;20609;-66
2021/08/18 09:20:31;;;;;;;25.85;9.02;;;;;;;;;;4220693;33;20136;-66
2021/08/18 09:23:02;;;;;;;23.33;9.73;;;;;;;;;;4207558;33;20450;-64
2021/08/18 09:25:29;;;;;;;19.35;8.75;;;;;;;;;;4231763;33;20110;-65
2021/08/18 09:28:01;;;;;;;14.75;7.30;;;;;;;;;;4232308;33;20113;-67
2021/08/18 09:30:32;;;;;;;22.60;8.90;;;;;;;;;;4234105;33;20541;-67
2021/08/18 09:33:00;;;;;;;17.83;10.80;;;;;;;;;;4233795;33;20207;-67
2021/08/18 09:35:27;;;;;;;15.73;7.55;;;;;;;;;;4221083;33;20109;-67
2021/08/18 09:37:59;;;;;;;15.05;8.65;;;;;;;;;;4220670;33;20120;-67
2021/08/18 09:40:35;;;;;;;14.25;7.45;;;;;;;;;;4233813;33;20461;-67
2021/08/18 09:43:17;;;;;;;21.42;9.30;;;;;;;;;;4233654;33;20116;-68
2021/08/18 09:45:45;;;;;;;23.08;10.13;;;;;;;;;;4233688;33;20218;-68
2021/08/18 09:48:16;;;;;;;15.15;8.55;;;;;;;;;;4233681;33;20113;-67
2021/08/18 09:50:43;;;;;;;15.00;7.03;;;;;;;;;;4233684;33;20136;-68
2021/08/18 09:53:11;;;;;;;15.98;7.45;;;;;;;;;;4233747;33;20491;-68
2021/08/18 09:55:38;;;;;;;25.42;8.70;;;;;;;;;;4233724;33;20112;-68
2021/08/18 09:58:15;;;;;;;11.63;5.62;;;;;;;;;;4220541;33;20136;-69
2021/08/18 10:00:41;;;;;;;13.98;7.68;;;;;;;;;;4198415;33;20113;-68
2021/08/18 10:03:08;;;;;;;13.85;7.75;;;;;;;;;;4220368;33;20533;-68
2021/08/18 10:05:34;;;;;;;16.42;8.32;;;;;;;;;;4220614;33;20133;-68
2021/08/18 10:08:00;;;;;;;13.98;7.28;;;;;;;;;;4220670;33;20148;-67
2021/08/18 10:10:26;;;;;;;13.27;6.97;;;;;;;;;;4220729;33;20883;-68
2021/08/18 10:12:52;;;;;;;8.50;4.80;;;;;;;;;;4220404;33;20089;-68
2021/08/18 10:15:18;;;;;;;12.25;6.10;;;;;;;;;;4220537;33;20461;-67
2021/08/18 10:17:44;;;;;;;11.12;6.05;;;;;;;;;;4233123;33;20108;-68
2021/08/18 10:20:11;;;;;;;10.50;4.80;;;;;;;;;;4209307;33;20096;-67
2021/08/18 10:22:38;;;;;;;8.98;5.85;;;;;;;;;;4220233;33;20109;-67
2021/08/18 10:25:37;;;;;;;11.35;5.22;;;;;;;;;;4233587;33;20196;-67
2021/08/18 10:28:05;;;;;;;7.90;5.62;;;;;;;;;;4202131;33;20113;-68
2021/08/18 10:30:31;;;;;;;8.65;5.78;;;;;;;;;;4233411;33;20105;-67
2021/08/18 10:32:57;;;;;;;12.50;5.30;;;;;;;;;;4233229;33;20100;-67
2021/08/18 10:35:35;;;;;;;17.50;5.15;;;;;;;;;;4233291;33;20564;-67
2021/08/18 10:38:29;;;;;;;8.73;3.80;;;;;;;;;;4233484;33;20112;-65
2021/08/18 10:40:55;;;;;;;11.82;4.72;;;;;;;;;;4233357;33;20110;-66
2021/08/18 10:43:56;;;;;;;7.28;4.50;;;;;;;;;;4220213;33;20207;-66
2021/08/18 10:46:23;;;;;;;8.35;4.70;;;;;;;;;;4233157;33;20097;-66
2021/08/18 10:48:55;;;;;;;10.73;5.35;;;;;;;;;;4233090;33;20200;-66
2021/08/18 10:51:50;;;;;;;10.63;5.20;;;;;;;;;;4233361;33;20117;-65
2021/08/18 10:54:28;;;;;;;12.63;5.28;;;;;;;;;;4231851;33;20210;-65
2021/08/18 10:56:58;;;;;;;7.57;4.05;;;;;;;;;;4233214;33;20093;-66
2021/08/18 10:59:36;;;;;;;11.80;5.18;;;;;;;;;;4233399;33;20124;-66
2021/08/18 11:02:09;;;;;;;11.50;5.12;;;;;;;;;;4232915;33;20115;-66
2021/08/18 11:04:44;;;;;;;6.15;5.00;;;;;;;;;;4232937;33;20196;-66
2021/08/18 11:07:10;;;;;;;10.10;5.00;;;;;;;;;;4233125;33;20200;-64
2021/08/18 11:09:48;;;;;;;7.20;3.83;;;;;;;;;;4232837;33;20132;-66
2021/08/18 11:12:39;;;;;;;8.90;5.32;;;;;;;;;;4232908;33;20116;-66
2021/08/18 11:15:17;;;;;;;14.40;7.05;;;;;;;;;;4232893;33;20116;-67
2021/08/18 11:17:44;;;;;;;12.10;7.05;;;;;;;;;;4232624;33;20174;-66
2021/08/18 11:20:11;;;;;;;15.90;6.47;;;;;;;;;;4232864;33;20086;-66
2021/08/18 11:22:38;;;;;;;8.57;4.90;;;;;;;;;;4219707;33;20113;-67
2021/08/18 11:25:05;;;;;;;11.75;6.70;;;;;;;;;;4208559;33;20101;-67
2021/08/18 11:27:30;;;;;;;13.68;5.05;;;;;;;;;;4232738;33;20093;-65
2021/08/18 11:29:56;;;;;;;6.32;3.55;;;;;;;;;;4219791;33;20125;-68
2021/08/18 11:32:25;;;;;;;13.65;5.70;;;;;;;;;;4220106;33;20157;-66
2021/08/18 11:34:52;;;;;;;12.20;5.07;;;;;;;;;;4232735;33;20117;-67
2021/08/18 11:37:18;;;;;;;8.40;4.60;;;;;;;;;;4219536;33;20101;-67
2021/08/18 11:39:46;;;;;;;7.12;5.05;;;;;;;;;;4232953;33;20133;-67
2021/08/18 11:42:16;;;;;;;12.02;5.18;;;;;;;;;;4220043;33;20113;-66
2021/08/18 11:44:42;;;;;;;13.62;5.03;;;;;;;;;;4232467;33;20098;-67
2021/08/18 11:47:18;;;;;;;6.15;3.90;;;;;;;;;;4232431;33;20139;-66
2021/08/18 11:49:46;;;;;;;8.50;5.45;;;;;;;;;;4232563;33;20089;-66
2021/08/18 11:52:19;;;;;;;10.18;4.97;;;;;;;;;;4232080;33;20116;-66
2021/08/18 11:54:55;;;;;;;8.57;4.75;;;;;;;;;;4232446;33;20473;-66
2021/08/18 11:57:21;;;;;;;7.85;5.05;;;;;;;;;;4219453;33;20128;-66
2021/08/18 11:59:53;;;;;;;10.45;5.07;;;;;;;;;;4219564;33;20224;-66
2021/08/18 12:02:23;;;;;;;8.63;4.37;;;;;;;;;;4232591;33;20185;-66
2021/08/18 12:04:48;;;;;;;12.68;5.35;;;;;;;;;;4233085;33;20094;-66
2021/08/18 12:07:15;;;;;;;12.13;4.65;;;;;;;;;;4232404;33;20100;-67
2021/08/18 12:09:45;;;;;;;9.98;5.32;;;;;;;;;;4232447;33;20212;-66
2021/08/18 12:12:13;;;;;;;10.82;5.22;;;;;;;;;;4232500;33;20109;-66
2021/08/18 12:14:41;;;;;;;10.02;5.35;;;;;;;;;;4232569;33;20550;-66
2021/08/18 12:17:07;;;;;;;7.57;4.40;;;;;;;;;;4219407;33;20536;-66
2021/08/18 12:19:40;;;;;;;15.27;5.62;;;;;;;;;;4232535;33;20535;-66
2021/08/18 12:22:16;;;;;;;6.85;4.62;;;;;;;;;;4232474;33;20109;-66
2021/08/18 12:24:50;;;;;;;12.68;6.10;;;;;;;;;;4232629;33;20113;-66
2021/08/18 12:27:20;;;;;;;12.20;5.80;;;;;;;;;;4232432;33;20199;-66
2021/08/18 12:29:46;;;;;;;9.77;5.28;;;;;;;;;;4232359;33;20125;-66
2021/08/18 12:32:13;;;;;;;11.70;5.68;;;;;;;;;;4232032;33;20525;-66
2021/08/18 12:35:01;;;;;;;5.97;3.40;;;;;;;;;;4232512;33;20120;-67
2021/08/18 12:37:29;;;;;;;9.75;6.18;;;;;;;;;;4219400;33;20185;-67
2021/08/18 12:40:00;;;;;;;13.52;6.37;;;;;;;;;;4232461;33;20207;-66
2021/08/18 12:42:29;;;;;;;16.02;6.70;;;;;;;;;;4231873;33;20116;-66
2021/08/18 12:45:05;;;;;;;9.25;5.80;;;;;;;;;;4232106;33;20100;-66
2021/08/18 12:47:39;;;;;;;6.90;4.72;;;;;;;;;;4232289;33;20101;-67
2021/08/18 12:50:07;;;;;;;9.48;5.37;;;;;;;;;;4232178;33;20197;-67
2021/08/18 12:52:33;;;;;;;8.15;5.80;;;;;;;;;;4231839;33;20499;-67
2021/08/18 12:55:01;;;;;;;10.05;5.50;;;;;;;;;;4232021;33;20148;-67
2021/08/18 12:57:27;;;;;;;8.98;5.85;;;;;;;;;;4231761;33;20114;-67
2021/08/18 12:59:53;;;;;;;8.23;5.53;;;;;;;;;;4231979;33;20537;-67
2021/08/18 13:02:18;;;;;;;9.43;5.95;;;;;;;;;;4230920;33;20115;-71
2021/08/18 13:04:45;;;;;;;16.05;6.50;;;;;;;;;;4219081;33;20093;-66
2021/08/18 13:07:11;;;;;;;10.52;4.93;;;;;;;;;;4231845;33;20105;-67
2021/08/18 13:09:38;;;;;;;9.25;5.15;;;;;;;;;;4232068;33;20207;-67
2021/08/18 13:12:04;;;;;;;12.30;7.00;;;;;;;;;;4218672;33;20136;-67
2021/08/18 13:14:30;;;;;;;10.98;5.65;;;;;;;;;;4231895;33;20200;-67
2021/08/18 13:16:57;;;;;;;11.55;6.75;;;;;;;;;;4232037;33;20144;-67
2021/08/18 13:19:24;;;;;;;11.43;5.93;;;;;;;;;;4231925;33;20136;-67
2021/08/18 13:21:51;;;;;;;12.73;6.65;;;;;;;;;;4218632;33;20117;-67
2021/08/18 13:24:17;;;;;;;13.25;5.93;;;;;;;;;;4231697;33;20158;-67
2021/08/18 13:26:44;;;;;;;12.00;5.68;;;;;;;;;;4231784;33;20129;-67
2021/08/18 13:29:11;;;;;;;10.50;5.68;;;;;;;;;;4231910;33;20120;-66
2021/08/18 13:31:37;;;;;;;9.45;5.40;;;;;;;;;;4218539;33;20488;-67
2021/08/18 13:34:04;;;;;;;11.65;5.45;;;;;;;;;;4231610;33;20120;-66
2021/08/18 13:36:31;;;;;;;12.95;5.70;;;;;;;;;;4231770;33;20104;-67
2021/08/18 13:38:56;;;;;;;13.10;6.35;;;;;;;;;;4231701;33;20216;-67
2021/08/18 13:41:22;;;;;;;11.23;6.03;;;;;;;;;;4231547;33;20143;-67
2021/08/18 13:43:48;;;;;;;11.68;5.10;;;;;;;;;;4231450;33;20311;-67
2021/08/18 13:46:14;;;;;;;15.45;5.87;;;;;;;;;;4218549;33;20211;-67
2021/08/18 13:48:40;;;;;;;13.05;5.80;;;;;;;;;;4231510;33;20297;-67
2021/08/18 13:51:06;;;;;;;10.70;5.68;;;;;;;;;;4218548;33;20135;-67
2021/08/18 13:53:32;;;;;;;7.70;4.70;;;;;;;;;;4231161;33;20121;-67
2021/08/18 13:55:58;;;;;;;14.93;5.65;;;;;;;;;;4231500;33;20583;-66
2021/08/18 13:58:24;;;;;;;12.55;7.10;;;;;;;;;;4218240;33;20128;-67
2021/08/18 14:00:50;;;;;;;10.63;5.53;;;;;;;;;;4231288;33;20121;-68
2021/08/18 14:03:17;;;;;;;10.48;5.47;;;;;;;;;;4231130;33;20112;-68
2021/08/18 14:05:43;;;;;;;13.65;6.20;;;;;;;;;;4218290;33;20119;-67
2021/08/18 14:08:11;;;;;;;11.25;5.50;;;;;;;;;;4231497;33;20193;-67
2021/08/18 14:10:40;;;;;;;10.20;4.82;;;;;;;;;;4231419;33;20123;-67
2021/08/18 14:13:06;;;;;;;8.73;4.87;;;;;;;;;;4231150;33;20093;-67
2021/08/18 14:15:33;;;;;;;10.38;5.03;;;;;;;;;;4233151;33;20098;-67
2021/08/18 14:18:04;;;;;;;13.75;5.53;;;;;;;;;;4233433;33;20124;-67
2021/08/18 14:20:31;;;;;;;22.98;6.87;;;;;;;;;;4233562;33;20134;-67
2021/08/18 14:22:57;;;;;;;12.07;5.37;;;;;;;;;;4233389;33;20509;-67
2021/08/18 14:25:23;;;;;;;8.13;5.87;;;;;;;;;;4233334;33;20541;-64
2021/08/18 14:27:49;;;;;;;8.18;5.37;;;;;;;;;;4233354;33;20152;-65
2021/08/18 14:30:15;;;;;;;11.20;5.43;;;;;;;;;;4233336;33;20132;-65
2021/08/18 14:32:43;;;;;;;6.97;5.10;;;;;;;;;;4233342;33;20121;-64
2021/08/18 14:35:10;;;;;;;10.85;5.50;;;;;;;;;;4232936;33;20104;-63
2021/08/18 14:37:37;;;;;;;13.57;6.18;;;;;;;;;;4233217;33;20120;-63
2021/08/18 14:40:04;;;;;;;9.23;5.47;;;;;;;;;;4233466;33;20144;-63
2021/08/18 14:42:29;;;;;;;17.77;8.50;;;;;;;;;;4233141;33;20128;-63